createdAt,value
2023-04-18T00:00:36.808Z,7.48
2023-04-18T00:03:04.666Z,7.43
2023-04-18T00:05:31.425Z,7.34
2023-04-18T00:07:57.817Z,7.30
2023-04-18T00:10:24.265Z,7.20
2023-04-18T00:12:51.366Z,7.17
2023-04-18T00:15:18.371Z,7.10
2023-04-18T00:17:44.775Z,7.10
2023-04-18T00:20:12.732Z,7.09
2023-04-18T00:22:46.662Z,7.00
2023-04-18T00:25:13.179Z,6.96
2023-04-18T00:27:39.584Z,6.91
2023-04-18T00:30:07.127Z,6.87
2023-04-18T00:32:33.560Z,6.78
2023-04-18T00:34:59.970Z,6.72
2023-04-18T00:37:27.013Z,6.73
2023-04-18T00:39:53.895Z,6.72
2023-04-18T00:42:25.393Z,6.72
2023-04-18T00:44:51.791Z,6.69
2023-04-18T00:47:18.209Z,6.62
2023-04-18T00:49:45.470Z,6.57
2023-04-18T00:52:12.465Z,6.55
2023-04-18T00:54:40.616Z,6.48
2023-04-18T00:57:07.834Z,6.45
2023-04-18T00:59:35.421Z,6.29
2023-04-18T01:02:05.207Z,6.24
2023-04-18T01:04:34.553Z,6.13
2023-04-18T01:07:02.111Z,6.19
2023-04-18T01:09:28.663Z,6.14
2023-04-18T01:11:55.048Z,6.19
2023-04-18T01:14:21.648Z,6.10
2023-04-18T01:16:50.986Z,6.14
2023-04-18T01:19:17.453Z,6.09
2023-04-18T01:21:44.114Z,6.03
2023-04-18T01:24:12.744Z,5.96
2023-04-18T01:26:40.050Z,5.97
2023-04-18T01:29:06.946Z,5.96
2023-04-18T01:31:37.542Z,5.93
2023-04-18T01:34:05.314Z,5.95
2023-04-18T01:36:32.597Z,5.93
2023-04-18T01:38:59.696Z,5.89
2023-04-18T01:41:28.980Z,5.89
2023-04-18T01:43:55.360Z,5.93
2023-04-18T01:46:21.766Z,5.85
2023-04-18T01:48:48.145Z,5.82
2023-04-18T01:51:14.553Z,5.83
2023-04-18T01:53:41.760Z,5.87
2023-04-18T01:56:10.093Z,5.81
2023-04-18T01:58:36.972Z,5.76
2023-04-18T02:01:03.902Z,5.77
2023-04-18T02:03:30.489Z,5.73
2023-04-18T02:05:57.100Z,5.72
2023-04-18T02:08:23.486Z,5.69
2023-04-18T02:10:49.825Z,5.66
2023-04-18T02:13:16.205Z,5.63
2023-04-18T02:15:45.787Z,5.53
2023-04-18T02:18:12.250Z,5.54
2023-04-18T02:20:39.158Z,5.55
2023-04-18T02:23:05.633Z,5.55
2023-04-18T02:25:31.990Z,5.49
2023-04-18T02:27:58.356Z,5.43
2023-04-18T02:30:25.668Z,5.47
2023-04-18T02:32:53.796Z,5.36
2023-04-18T02:35:21.030Z,5.26
2023-04-18T02:37:47.474Z,5.21
2023-04-18T02:40:14.074Z,5.16
2023-04-18T02:42:40.569Z,5.21
2023-04-18T02:45:07.815Z,5.16
2023-04-18T02:47:47.027Z,5.12
2023-04-18T02:50:17.999Z,5.05
2023-04-18T02:52:44.335Z,5.00
2023-04-18T02:55:10.894Z,5.00
2023-04-18T02:57:37.252Z,5.00
2023-04-18T03:00:04.597Z,5.01
2023-04-18T03:02:31.116Z,4.97
2023-04-18T03:04:57.554Z,4.98
2023-04-18T03:07:24.010Z,4.97
2023-04-18T03:09:50.530Z,4.95
2023-04-18T03:12:16.883Z,4.92
2023-04-18T03:14:44.475Z,4.92
2023-04-18T03:17:11.158Z,4.83
2023-04-18T03:19:37.502Z,4.80
2023-04-18T03:22:03.846Z,4.83
2023-04-18T03:24:30.196Z,4.83
2023-04-18T03:26:56.694Z,4.77
2023-04-18T03:29:23.162Z,4.80
2023-04-18T03:31:49.632Z,4.74
2023-04-18T03:34:16.055Z,4.71
2023-04-18T03:36:42.612Z,4.71
2023-04-18T03:39:09.082Z,4.65
2023-04-18T03:41:35.433Z,4.64
2023-04-18T03:44:01.740Z,4.63
2023-04-18T03:46:28.287Z,4.59
2023-04-18T03:48:54.650Z,4.58
2023-04-18T03:51:21.038Z,4.54
2023-04-18T03:53:47.396Z,4.49
2023-04-18T03:56:13.840Z,4.44
2023-04-18T03:58:40.283Z,4.47
2023-04-18T04:01:07.636Z,4.47
2023-04-18T04:03:34.074Z,4.54
2023-04-18T04:06:00.888Z,4.64
2023-04-18T04:08:28.318Z,4.77
2023-04-18T04:10:54.844Z,4.96
2023-04-18T04:13:21.148Z,5.04
2023-04-18T04:15:47.484Z,5.10
2023-04-18T04:18:13.808Z,5.16
2023-04-18T04:20:40.118Z,5.21
2023-04-18T04:23:06.983Z,5.29
2023-04-18T04:25:34.064Z,5.33
2023-04-18T04:28:01.421Z,5.35
2023-04-18T04:30:28.603Z,5.38
2023-04-18T04:32:55.124Z,5.41
2023-04-18T04:35:21.621Z,5.40
2023-04-18T04:37:48.263Z,5.38
2023-04-18T04:40:15.640Z,5.36
2023-04-18T04:42:42.260Z,5.43
2023-04-18T04:45:09.506Z,5.49
2023-04-18T04:47:36.622Z,5.53
2023-04-18T04:50:04.330Z,5.52
2023-04-18T04:52:32.629Z,5.59
2023-04-18T04:54:59.023Z,5.64
2023-04-18T04:57:25.560Z,5.68
2023-04-18T04:59:51.867Z,5.67
2023-04-18T05:02:18.321Z,5.66
2023-04-18T05:04:44.716Z,5.69
2023-04-18T05:07:11.099Z,5.68
2023-04-18T05:09:37.436Z,5.70
2023-04-18T05:12:04.385Z,5.70
2023-04-18T05:14:31.014Z,5.68
2023-04-18T05:16:57.473Z,5.71
2023-04-18T05:19:23.884Z,5.76
2023-04-18T05:21:50.183Z,5.79
2023-04-18T05:24:16.797Z,5.83
2023-04-18T05:26:43.445Z,5.86
2023-04-18T05:29:09.861Z,5.92
2023-04-18T05:31:36.348Z,5.92
2023-04-18T05:34:03.042Z,5.99
2023-04-18T05:36:29.488Z,6.00
2023-04-18T05:38:55.842Z,5.98
2023-04-18T05:41:22.874Z,6.02
2023-04-18T05:43:58.088Z,6.05
2023-04-18T05:46:31.706Z,6.12
2023-04-18T05:48:58.089Z,6.18
2023-04-18T05:51:24.503Z,6.23
2023-04-18T05:53:51.072Z,6.25
2023-04-18T05:56:17.450Z,6.30
2023-04-18T05:58:45.530Z,6.37
2023-04-18T06:01:14.179Z,6.43
2023-04-18T06:03:41.511Z,6.45
2023-04-18T06:06:08.362Z,6.47
2023-04-18T06:08:34.763Z,6.50
2023-04-18T06:11:01.132Z,6.54
2023-04-18T06:13:27.437Z,6.57
2023-04-18T06:15:54.031Z,6.63
2023-04-18T06:18:20.414Z,6.71
2023-04-18T06:20:46.805Z,6.78
2023-04-18T06:23:13.237Z,6.87
2023-04-18T06:25:41.569Z,6.98
2023-04-18T06:28:08.007Z,7.12
2023-04-18T06:30:34.662Z,7.23
2023-04-18T06:33:01.076Z,7.33
2023-04-18T06:35:30.746Z,7.52
2023-04-18T06:37:57.129Z,7.74
2023-04-18T06:40:23.452Z,7.87
2023-04-18T06:42:49.777Z,8.03
2023-04-18T06:45:16.242Z,8.16
2023-04-18T06:47:42.596Z,8.22
2023-04-18T06:50:09.554Z,8.38
2023-04-18T06:52:40.368Z,8.29
2023-04-18T06:55:08.961Z,8.25
2023-04-18T06:57:35.336Z,8.29
2023-04-18T07:00:01.768Z,8.29
2023-04-18T07:02:28.218Z,8.42
2023-04-18T07:04:54.757Z,8.54
2023-04-18T07:07:21.198Z,8.63
2023-04-18T07:09:48.461Z,8.68
2023-04-18T07:12:15.380Z,8.61
2023-04-18T07:14:42.022Z,8.57
2023-04-18T07:17:08.575Z,8.48
2023-04-18T07:19:35.024Z,8.56
2023-04-18T07:22:01.340Z,8.58
2023-04-18T07:24:27.748Z,8.60
2023-04-18T07:26:55.227Z,8.71
2023-04-18T07:29:21.676Z,8.81
2023-04-18T07:31:48.417Z,8.82
2023-04-18T07:34:15.322Z,8.88
2023-04-18T07:36:42.147Z,8.96
2023-04-18T07:39:08.606Z,9.13
2023-04-18T07:41:35.608Z,9.37
2023-04-18T07:44:02.718Z,9.58
2023-04-18T07:46:29.421Z,9.69
2023-04-18T07:48:56.026Z,10.08
2023-04-18T07:51:25.280Z,10.84
2023-04-18T07:53:51.740Z,11.00
2023-04-18T07:56:18.577Z,10.88
2023-04-18T07:58:44.971Z,11.28
2023-04-18T08:01:15.229Z,11.57
2023-04-18T08:03:41.788Z,11.73
2023-04-18T08:06:08.421Z,11.92
2023-04-18T08:08:34.729Z,12.11
2023-04-18T08:11:01.181Z,12.47
2023-04-18T08:13:27.637Z,12.68
2023-04-18T08:15:55.773Z,12.38
2023-04-18T08:18:23.122Z,12.30
2023-04-18T08:20:49.488Z,12.98
2023-04-18T08:23:15.950Z,13.66
2023-04-18T08:25:42.372Z,13.80
2023-04-18T08:28:08.830Z,13.26
2023-04-18T08:30:35.353Z,12.77
2023-04-18T08:33:02.246Z,12.57
2023-04-18T08:35:28.749Z,12.24
2023-04-18T08:37:55.241Z,11.81
2023-04-18T08:40:21.885Z,11.45
2023-04-18T08:42:49.411Z,11.60
2023-04-18T08:45:16.194Z,12.04
2023-04-18T08:47:42.974Z,12.18
2023-04-18T08:50:10.397Z,12.80
2023-04-18T08:52:38.703Z,13.89
2023-04-18T08:55:05.688Z,13.51
2023-04-18T08:57:33.180Z,13.73
2023-04-18T09:00:02.282Z,13.65
2023-04-18T09:02:38.971Z,13.03
2023-04-18T09:05:19.566Z,12.32
2023-04-18T09:07:47.437Z,12.31
2023-04-18T09:10:24.113Z,12.94
2023-04-18T09:12:50.806Z,12.89
2023-04-18T09:15:20.218Z,12.74
2023-04-18T09:17:53.294Z,12.96
2023-04-18T09:20:41.108Z,14.38
2023-04-18T09:23:10.764Z,14.86
2023-04-18T09:25:44.770Z,15.47
2023-04-18T09:28:30.105Z,15.70
2023-04-18T09:31:15.319Z,15.98
2023-04-18T09:33:54.111Z,16.44
2023-04-18T09:36:24.771Z,16.23
2023-04-18T09:38:55.534Z,15.64
2023-04-18T09:41:23.343Z,15.52
2023-04-18T09:43:50.015Z,14.98
2023-04-18T09:46:17.764Z,14.41
2023-04-18T09:48:44.379Z,14.02
2023-04-18T09:51:14.978Z,13.68
2023-04-18T09:53:44.869Z,13.28
2023-04-18T09:56:27.954Z,13.14
2023-04-18T09:59:07.131Z,12.82
2023-04-18T10:01:34.033Z,12.40
2023-04-18T10:04:04.108Z,12.20
2023-04-18T10:06:33.861Z,12.18
2023-04-18T10:09:04.162Z,12.08
2023-04-18T10:11:31.689Z,12.07
2023-04-18T10:14:01.248Z,12.14
2023-04-18T10:16:28.688Z,12.08
2023-04-18T10:18:55.082Z,12.13
2023-04-18T10:21:21.933Z,12.22
2023-04-18T10:23:51.127Z,12.58
2023-04-18T10:26:17.515Z,13.35
2023-04-18T10:28:57.303Z,14.80
2023-04-18T10:31:28.614Z,16.11
2023-04-18T10:36:28.580Z,15.54
2023-04-18T10:39:25.494Z,14.87
2023-04-18T10:41:51.989Z,14.60
2023-04-18T10:44:21.777Z,14.61
2023-04-18T10:46:48.057Z,14.85
2023-04-18T10:49:21.908Z,15.03
2023-04-18T10:51:51.139Z,15.17
2023-04-18T10:54:21.141Z,15.21
2023-04-18T10:56:59.004Z,15.31
2023-04-18T10:59:26.975Z,15.21
2023-04-18T11:01:59.971Z,15.10
2023-04-18T11:04:26.572Z,15.37
2023-04-18T11:06:58.334Z,16.13
2023-04-18T11:09:24.960Z,16.30
2023-04-18T11:12:11.328Z,16.00
2023-04-18T11:14:46.319Z,15.43
2023-04-18T11:17:26.769Z,15.36
2023-04-18T11:20:01.300Z,15.82
2023-04-18T11:22:27.820Z,15.61
2023-04-18T11:24:59.014Z,15.59
2023-04-18T11:27:26.833Z,15.52
2023-04-18T11:29:54.517Z,16.33
2023-04-18T11:32:23.206Z,16.34
2023-04-18T11:34:55.881Z,16.44
2023-04-18T11:37:22.605Z,16.06
2023-04-18T11:39:51.929Z,16.97
2023-04-18T11:42:18.317Z,17.02
2023-04-18T11:44:49.156Z,17.33
2023-04-18T11:47:30.482Z,18.61
2023-04-18T11:50:01.785Z,18.53
2023-04-18T11:52:30.487Z,17.76
2023-04-18T11:55:14.952Z,17.15
2023-04-18T11:57:41.800Z,16.31
2023-04-18T12:00:10.658Z,15.84
2023-04-18T12:02:46.073Z,15.43
2023-04-18T12:05:24.162Z,15.24
2023-04-18T12:07:50.682Z,15.34
2023-04-18T12:10:19.963Z,15.37
2023-04-18T12:12:51.314Z,15.40
2023-04-18T12:15:18.407Z,15.30
2023-04-18T12:17:46.631Z,15.24
2023-04-18T12:20:13.426Z,15.08
2023-04-18T12:22:42.039Z,14.91
2023-04-18T12:25:24.217Z,14.79
2023-04-18T12:27:58.146Z,14.67
2023-04-18T12:30:36.013Z,14.52
2023-04-18T12:33:04.320Z,14.55
2023-04-18T12:35:31.881Z,14.64
2023-04-18T12:38:02.821Z,14.75
2023-04-18T12:40:30.129Z,14.92
2023-04-18T12:42:56.884Z,14.99
2023-04-18T12:45:24.041Z,15.14
2023-04-18T12:47:52.265Z,14.95
2023-04-18T12:50:21.818Z,14.60
2023-04-18T12:52:48.834Z,14.39
2023-04-18T12:55:15.761Z,14.22
2023-04-18T12:57:43.086Z,14.17
2023-04-18T13:00:12.806Z,14.15
2023-04-18T13:02:42.158Z,14.36
2023-04-18T13:05:10.890Z,14.78
2023-04-18T13:07:40.387Z,14.70
2023-04-18T13:10:08.863Z,14.58
2023-04-18T13:12:35.530Z,14.25
2023-04-18T13:15:02.053Z,14.07
2023-04-18T13:17:28.549Z,13.95
2023-04-18T13:19:54.905Z,13.93
2023-04-18T13:22:21.416Z,14.03
2023-04-18T13:24:48.376Z,14.08
2023-04-18T13:27:14.840Z,14.19
2023-04-18T13:29:43.088Z,14.39
2023-04-18T13:32:09.594Z,14.55
2023-04-18T13:34:42.325Z,14.60
2023-04-18T13:37:08.698Z,14.90
2023-04-18T13:39:35.043Z,14.95
2023-04-18T13:42:04.521Z,14.74
2023-04-18T13:44:31.500Z,14.83
2023-04-18T13:46:57.971Z,14.93
2023-04-18T13:49:24.441Z,15.16
2023-04-18T13:51:53.425Z,15.10
2023-04-18T13:54:20.079Z,15.17
2023-04-18T13:56:46.486Z,15.38
2023-04-18T13:59:13.102Z,15.60
2023-04-18T14:01:39.983Z,16.03
2023-04-18T14:04:06.780Z,16.36
2023-04-18T14:06:33.397Z,16.18
2023-04-18T14:08:59.757Z,16.01
2023-04-18T14:11:26.387Z,15.57
2023-04-18T14:13:52.760Z,15.22
2023-04-18T14:16:19.366Z,15.23
2023-04-18T14:18:46.167Z,15.17
2023-04-18T14:21:13.549Z,15.24
2023-04-18T14:23:39.886Z,15.32
2023-04-18T14:26:06.197Z,15.28
2023-04-18T14:28:32.590Z,15.33
2023-04-18T14:31:01.969Z,15.54
2023-04-18T14:33:29.238Z,15.97
2023-04-18T14:35:55.598Z,17.93
2023-04-18T14:38:21.985Z,19.71
2023-04-18T14:40:48.478Z,19.77
2023-04-18T14:43:14.857Z,19.92
2023-04-18T14:45:41.230Z,20.68
2023-04-18T14:48:10.215Z,20.88
2023-04-18T14:50:38.457Z,21.42
2023-04-18T14:53:05.981Z,21.62
2023-04-18T14:55:33.266Z,21.60
2023-04-18T14:58:00.143Z,21.84
2023-04-18T15:00:27.349Z,22.55
2023-04-18T15:02:53.949Z,21.07
2023-04-18T15:05:23.601Z,21.01
2023-04-18T15:07:51.865Z,20.66
2023-04-18T15:10:19.608Z,19.46
2023-04-18T15:12:48.958Z,18.80
2023-04-18T15:15:15.319Z,17.98
2023-04-18T15:17:42.057Z,17.22
2023-04-18T15:20:09.377Z,17.56
2023-04-18T15:22:36.030Z,17.99
2023-04-18T15:25:03.924Z,19.22
2023-04-18T15:27:30.419Z,19.91
2023-04-18T15:29:56.865Z,20.39
2023-04-18T15:32:23.408Z,20.39
2023-04-18T15:34:49.927Z,20.71
2023-04-18T15:37:16.328Z,20.88
2023-04-18T15:39:42.653Z,20.36
2023-04-18T15:42:09.036Z,20.39
2023-04-18T15:44:35.592Z,20.58
2023-04-18T15:47:02.055Z,20.56
2023-04-18T15:49:28.794Z,20.35
2023-04-18T15:51:56.651Z,19.75
2023-04-18T15:54:23.075Z,18.84
2023-04-18T15:56:49.506Z,18.33
2023-04-18T15:59:15.819Z,17.99
2023-04-18T16:01:45.236Z,17.75
2023-04-18T16:04:12.557Z,17.70
2023-04-18T16:06:39.266Z,18.07
2023-04-18T16:09:06.858Z,18.60
2023-04-18T16:11:33.225Z,18.23
2023-04-18T16:13:59.536Z,17.88
2023-04-18T16:16:26.546Z,17.65
2023-04-18T16:18:52.922Z,17.05
2023-04-18T16:21:19.330Z,16.66
2023-04-18T16:23:45.821Z,16.34
2023-04-18T16:26:12.201Z,16.07
2023-04-18T16:28:38.748Z,15.80
2023-04-18T16:31:06.357Z,15.46
2023-04-18T16:33:32.966Z,15.24
2023-04-18T16:36:02.929Z,15.26
2023-04-18T16:38:29.488Z,15.29
2023-04-18T16:40:57.342Z,15.34
2023-04-18T16:43:24.191Z,15.28
2023-04-18T16:45:50.614Z,15.23
2023-04-18T16:48:17.061Z,15.26
2023-04-18T16:50:45.588Z,15.35
2023-04-18T16:53:12.017Z,15.36
2023-04-18T16:55:38.325Z,15.32
2023-04-18T16:58:04.761Z,15.22
2023-04-18T17:00:31.269Z,15.22
2023-04-18T17:02:58.244Z,15.21
2023-04-18T17:05:25.851Z,15.10
2023-04-18T17:07:52.509Z,14.96
2023-04-18T17:10:19.318Z,14.86
2023-04-18T17:12:48.972Z,14.68
2023-04-18T17:15:19.148Z,14.65
2023-04-18T17:17:45.842Z,14.58
2023-04-18T17:20:12.620Z,14.56
2023-04-18T17:22:39.089Z,14.50
2023-04-18T17:25:05.970Z,14.52
2023-04-18T17:27:32.489Z,14.53
2023-04-18T17:29:58.955Z,14.49
2023-04-18T17:32:25.428Z,14.53
2023-04-18T17:34:52.105Z,14.63
2023-04-18T17:37:19.890Z,14.55
2023-04-18T17:39:46.199Z,14.48
2023-04-18T17:42:12.796Z,14.32
2023-04-18T17:44:39.785Z,14.23
2023-04-18T17:47:06.753Z,14.16
2023-04-18T17:49:35.990Z,13.96
2023-04-18T17:52:03.389Z,13.89
2023-04-18T17:54:30.273Z,13.93
2023-04-18T17:56:57.689Z,13.91
2023-04-18T17:59:24.036Z,13.90
2023-04-18T18:01:50.777Z,13.80
2023-04-18T18:04:17.308Z,13.60
2023-04-18T18:06:54.092Z,13.52
2023-04-18T18:09:20.590Z,13.57
2023-04-18T18:11:46.925Z,13.48
2023-04-18T18:14:13.569Z,13.43
2023-04-18T18:16:40.169Z,13.28
2023-04-18T18:19:09.584Z,13.13
2023-04-18T18:21:36.462Z,13.06
2023-04-18T18:24:03.013Z,13.02
2023-04-18T18:26:29.348Z,12.95
2023-04-18T18:28:55.721Z,12.92
2023-04-18T18:31:24.811Z,12.79
2023-04-18T18:33:52.005Z,12.73
2023-04-18T18:36:18.418Z,12.70
2023-04-18T18:38:44.868Z,12.66
2023-04-18T18:41:11.202Z,12.65
2023-04-18T18:43:37.707Z,12.59
2023-04-18T18:46:04.186Z,12.55
2023-04-18T18:48:32.607Z,12.50
2023-04-18T18:50:58.925Z,12.36
2023-04-18T18:53:25.378Z,12.18
2023-04-18T18:55:51.765Z,12.09
2023-04-18T18:58:18.092Z,11.97
2023-04-18T19:00:45.930Z,11.87
2023-04-18T19:03:12.654Z,11.75
2023-04-18T19:05:39.121Z,11.72
2023-04-18T19:08:06.506Z,11.58
2023-04-18T19:10:32.984Z,11.39
2023-04-18T19:13:00.212Z,11.29
2023-04-18T19:15:26.749Z,11.28
2023-04-18T19:17:53.099Z,11.21
2023-04-18T19:20:19.601Z,11.30
2023-04-18T19:22:46.002Z,11.35
2023-04-18T19:25:12.411Z,11.37
2023-04-18T19:27:38.749Z,11.34
2023-04-18T19:30:05.854Z,11.31
2023-04-18T19:32:32.595Z,11.31
2023-04-18T19:34:59.907Z,11.32
2023-04-18T19:37:26.395Z,11.33
2023-04-18T19:39:52.972Z,11.22
2023-04-18T19:42:19.542Z,11.13
2023-04-18T19:44:45.925Z,11.03
2023-04-18T19:47:12.257Z,10.98
2023-04-18T19:49:38.762Z,10.95
2023-04-18T19:52:06.047Z,10.96
2023-04-18T19:54:35.731Z,10.96
2023-04-18T19:57:02.649Z,10.94
2023-04-18T19:59:28.975Z,10.92
2023-04-18T20:01:56.681Z,10.88
2023-04-18T20:04:25.587Z,10.84
2023-04-18T20:06:53.671Z,10.83
2023-04-18T20:09:20.063Z,10.72
2023-04-18T20:11:47.793Z,10.64
2023-04-18T20:14:14.172Z,10.60
2023-04-18T20:16:42.708Z,10.64
2023-04-18T20:19:12.441Z,10.58
2023-04-18T20:21:39.185Z,10.52
2023-04-18T20:24:06.702Z,10.55
2023-04-18T20:26:33.203Z,10.48
2023-04-18T20:28:59.605Z,10.42
2023-04-18T20:31:25.970Z,10.46
2023-04-18T20:33:52.279Z,10.42
2023-04-18T20:36:18.875Z,10.41
2023-04-18T20:38:45.293Z,10.37
2023-04-18T20:41:17.954Z,10.27
2023-04-18T20:43:45.936Z,10.16
2023-04-18T20:46:12.945Z,10.16
2023-04-18T20:48:40.197Z,10.11
2023-04-18T20:51:06.716Z,10.09
2023-04-18T20:53:33.192Z,10.05
2023-04-18T20:56:02.113Z,10.02
2023-04-18T20:58:29.607Z,10.01
2023-04-18T21:00:55.949Z,9.98
2023-04-18T21:03:22.948Z,9.93
2023-04-18T21:05:49.455Z,9.92
2023-04-18T21:08:15.871Z,9.97
2023-04-18T21:10:42.226Z,9.96
2023-04-18T21:13:09.269Z,9.87
2023-04-18T21:15:36.031Z,9.82
2023-04-18T21:18:02.469Z,9.80
2023-04-18T21:20:29.005Z,9.81
2023-04-18T21:22:55.593Z,9.77
2023-04-18T21:25:22.155Z,9.76
2023-04-18T21:27:50.403Z,9.72
2023-04-18T21:30:16.760Z,9.69
2023-04-18T21:32:43.110Z,9.73
2023-04-18T21:35:09.993Z,9.66
2023-04-18T21:37:36.381Z,9.65
2023-04-18T21:40:04.000Z,9.63
2023-04-18T21:42:30.395Z,9.64
2023-04-18T21:44:56.705Z,9.63
2023-04-18T21:47:23.109Z,9.58
2023-04-18T21:49:49.630Z,9.55
2023-04-18T21:52:15.970Z,9.54
2023-04-18T21:54:42.424Z,9.48
2023-04-18T21:57:08.792Z,9.42
2023-04-18T21:59:35.121Z,9.40
2023-04-18T22:02:01.551Z,9.36
2023-04-18T22:04:29.008Z,9.35
2023-04-18T22:06:55.920Z,9.33
2023-04-18T22:09:22.521Z,9.29
2023-04-18T22:11:51.084Z,9.21
2023-04-18T22:14:20.058Z,9.24
2023-04-18T22:16:46.444Z,9.22
2023-04-18T22:19:14.017Z,9.15
2023-04-18T22:21:40.528Z,9.15
2023-04-18T22:24:07.600Z,9.17
2023-04-18T22:26:34.051Z,9.10
2023-04-18T22:29:00.469Z,9.02
2023-04-18T22:31:27.174Z,9.00
2023-04-18T22:33:53.570Z,8.94
2023-04-18T22:36:19.984Z,8.98
2023-04-18T22:38:46.506Z,8.94
2023-04-18T22:41:12.996Z,8.89
2023-04-18T22:43:39.373Z,8.88
2023-04-18T22:46:05.935Z,8.80
2023-04-18T22:48:34.980Z,8.77
2023-04-18T22:51:01.906Z,8.74
2023-04-18T22:53:28.539Z,8.80
2023-04-18T22:55:54.931Z,8.76
2023-04-18T22:58:21.524Z,8.74
2023-04-18T23:00:47.847Z,8.69
2023-04-18T23:03:14.348Z,8.75
2023-04-18T23:05:41.364Z,8.77
2023-04-18T23:08:08.018Z,8.74
2023-04-18T23:10:34.501Z,8.75
2023-04-18T23:13:00.937Z,8.77
2023-04-18T23:15:27.411Z,8.71
2023-04-18T23:17:53.935Z,8.66
2023-04-18T23:20:21.260Z,8.55
2023-04-18T23:22:51.605Z,8.52
2023-04-18T23:25:19.379Z,8.48
2023-04-18T23:27:46.004Z,8.53
2023-04-18T23:30:12.633Z,8.54
2023-04-18T23:32:39.115Z,8.60
2023-04-18T23:35:06.420Z,8.63
2023-04-18T23:37:33.306Z,8.68
2023-04-18T23:40:00.515Z,8.69
2023-04-18T23:42:27.240Z,8.74
2023-04-18T23:44:54.505Z,8.72
2023-04-18T23:47:21.418Z,8.74
2023-04-18T23:49:47.907Z,8.64
2023-04-18T23:52:14.608Z,8.65
2023-04-18T23:54:41.098Z,8.63
2023-04-18T23:57:07.569Z,8.60
2023-04-18T23:59:33.905Z,8.56
